Airfield :
LOGIN :

Register | Disclaimer

   EN    FR    IT 

 










Legend :    VFR   Marginal VFR   IFR   Intensive IFR   Very Intensive IFR
Visi :
Ceiling :
>= 8 km
>= 3000ft
5 to 8 km
1000 to 3000 ft
1500m to 5 km
500 to 1000 ft
800 to 1500m
200 to 500 ft
< 800m
< 200 ft
Symbols :   Thunderstorms  Fog  Heavy snow  Heavy precipitations  Wind > 20 kt
SIGMETs :     Misc.  Thunderstorms  Icing  Turbulence  Mountain Waves  Volcanic Ashes







- Airport Elevation : 63 ft
- IATA code : BZM


EHWO - Woensdrecht Airbase

CURRENT METAR :
  • 170055Z AUTO 22003KT 190V270 9999 -SHRA BKN015CB OVC097 16/16 Q1016 WHT

EXPIRED METARs :
  • 170045Z AUTO 24003KT 240V320 9999 SHRA BKN015CB BKN094 OVC100 16/16 Q1015 WHT
  • 170041Z AUTO 26003KT 240V330 9999 -SHRA BKN015CB SCT090 OVC099 16/16 Q1015 WHT
  • 170029Z AUTO VRB02KT 9999 -SHRA BKN015CB BKN093 OVC098 16/15 Q1015 WHT
  • 170025Z AUTO VRB02KT 9999 SHRA BKN015CB BKN091 OVC097 16/16 Q1015 WHT
  • 170018Z AUTO VRB02KT 9999 SHRA SCT015CB BKN093 OVC099 16/16 Q1015 WHT
  • 170001Z AUTO 26005KT 9999 -RA FEW002 SCT015CB BKN078 BKN083 16/16 Q1016 WHT
  • 162355Z AUTO 27003KT 250V320 9999 -SHRA FEW002 SCT015CB BKN075 OVC081 16/16 Q1015 RETSRA WHT
  • 162346Z AUTO 29003KT 260V320 9999 SHRA BKN015CB SCT074 BKN080 OVC095 16/16 Q1015 WHT
  • 162338Z AUTO VRB02KT 9000 TSRA BKN015CB SCT083 OVC092 16/16 Q1015 WHT
  • 162334Z AUTO 28003KT 220V320 8000 SHRA BKN015CB SCT085 OVC092 16/16 Q1015 WHT
  • 162333Z AUTO 28005KT 220V320 9000 TSRA BKN015CB SCT070 BKN077 16/16 Q1015 WHT
  • 162325Z AUTO 27006KT 190V330 6000 +TSRA FEW009 BKN015CB BKN048 16/15 Q1016 WHT
  • 162315Z AUTO VRB05KT 9000 TSRA FEW012 BKN015CB OVC063 16/16 Q1016 WHT
  • 162300Z AUTO 29006KT 250V330 9999 SHRA SCT015CB BKN071 OVC076 17/16 Q1015 WHT
  • 162259Z AUTO 29006KT 250V320 9999 -RA SCT015CB SCT070 OVC075 17/16 Q1016 WHT
  • 162255Z AUTO 29006KT 250V320 9999 -RA FEW015CB SCT052 BKN068 17/16 Q1016 BLU
  • 162245Z AUTO 30006KT 250V320 9999 FEW013 BKN015CB OVC063 17/16 Q1016 WHT
  • 162239Z AUTO 30006KT 240V320 9999 FEW007 SCT012 OVC014 17/16 Q1016 GRN
  • 162227Z AUTO 30004KT 260V350 9999 -DZRA FEW007 SCT008 BKN010 FEW015CB 17/17 Q1015 GRN
  • 162225Z AUTO 31003KT 250V020 9999 TS FEW007 BKN009 BKN010 FEW015CB 17/17 Q1015 RERA GRN
  • 162216Z AUTO 32004KT 280V040 9999 -TSRA DZ SCT009 BKN011 BKN013 SCT015CB 17/17 Q1015 GRN
  • 162200Z AUTO 28005KT 230V340 6000 +RA FEW007 BKN010 BKN013 BKN015CB 17/17 Q1015 GRN

Expired Forecast.
No reported NOTAMs for that airfield.



MET'MAP, your aeronautical weather chart ! - Copyright ORBIFLY December 2007 - Disclaimer

ORBIFLY MET'MAP TEAM :

Programming & Development : Alexandra Zaïnal
Concept & Development : Baudouin d'Aumeries
Co-Development & Prog : Marc-Olivier Méhu
Technical & hardware support : Manuel Goepfert

Contact : metmap@orbifly.com




SOURCES & CREDITS :

   NOAA